createdAt,value
2017-07-17T00:02:00.269Z,3.12
2017-07-17T00:04:29.990Z,3.47
2017-07-17T00:06:59.726Z,3.08
2017-07-17T00:09:29.469Z,3.28
2017-07-17T00:11:59.203Z,2.97
2017-07-17T00:14:28.959Z,2.80
2017-07-17T00:16:58.707Z,2.97
2017-07-17T00:19:28.454Z,3.10
2017-07-17T00:21:58.195Z,3.20
2017-07-17T00:24:27.922Z,3.08
2017-07-17T00:26:57.658Z,3.00
2017-07-17T00:29:27.405Z,3.53
2017-07-17T00:31:57.235Z,3.00
2017-07-17T00:34:26.978Z,3.03
2017-07-17T00:36:56.714Z,3.40
2017-07-17T00:39:26.447Z,3.03
2017-07-17T00:41:56.189Z,3.00
2017-07-17T00:44:25.922Z,2.92
2017-07-17T00:46:55.658Z,3.30
2017-07-17T00:49:25.389Z,3.10
2017-07-17T00:51:55.120Z,3.20
2017-07-17T00:54:24.855Z,3.05
2017-07-17T00:56:54.591Z,3.12
2017-07-17T00:59:24.327Z,3.03
2017-07-17T01:01:54.067Z,3.42
2017-07-17T01:04:23.797Z,3.15
2017-07-17T01:06:53.546Z,3.00
2017-07-17T01:09:23.312Z,4.07
2017-07-17T01:11:53.023Z,3.60
2017-07-17T01:14:22.815Z,3.20
2017-07-17T01:16:52.542Z,3.42
2017-07-17T01:19:22.290Z,3.70
2017-07-17T01:21:51.988Z,3.20
2017-07-17T01:24:21.717Z,3.83
2017-07-17T01:26:51.454Z,2.90
2017-07-17T01:29:21.202Z,4.20
2017-07-17T01:31:50.935Z,3.47
2017-07-17T01:34:20.704Z,3.42
2017-07-17T01:36:50.418Z,3.22
2017-07-17T01:39:20.151Z,4.00
2017-07-17T01:41:49.883Z,3.95
2017-07-17T01:44:19.607Z,3.58
2017-07-17T01:46:49.348Z,3.35
2017-07-17T01:49:19.082Z,3.50
2017-07-17T01:51:48.830Z,3.15
2017-07-17T01:54:18.553Z,3.40
2017-07-17T01:56:47.949Z,3.50
2017-07-17T01:59:17.351Z,3.45
2017-07-17T02:01:47.085Z,3.08
2017-07-17T02:04:16.817Z,3.28
2017-07-17T02:06:46.546Z,3.03
2017-07-17T02:09:16.278Z,3.40
2017-07-17T02:11:46.011Z,3.87
2017-07-17T02:14:15.753Z,3.30
2017-07-17T02:16:45.475Z,3.85
2017-07-17T02:19:15.214Z,3.22
2017-07-17T02:21:45.070Z,3.22
2017-07-17T02:24:14.792Z,3.40
2017-07-17T02:26:44.528Z,3.53
2017-07-17T02:29:14.257Z,3.60
2017-07-17T02:31:44.142Z,3.22
2017-07-17T02:34:13.859Z,3.72
2017-07-17T02:36:43.589Z,3.00
2017-07-17T02:39:13.327Z,3.47
2017-07-17T02:41:43.058Z,4.20
2017-07-17T02:44:12.909Z,3.83
2017-07-17T02:46:42.643Z,3.30
2017-07-17T02:49:12.383Z,3.40
2017-07-17T02:51:42.109Z,3.65
2017-07-17T02:54:11.844Z,3.45
2017-07-17T02:56:41.575Z,3.33
2017-07-17T02:59:11.304Z,3.33
2017-07-17T03:01:41.034Z,3.40
2017-07-17T03:04:10.762Z,3.95
2017-07-17T03:06:40.495Z,3.90
2017-07-17T03:09:10.246Z,3.22
2017-07-17T03:11:39.992Z,3.60
2017-07-17T03:14:09.727Z,3.67
2017-07-17T03:16:39.463Z,4.12
2017-07-17T03:19:09.238Z,3.40
2017-07-17T03:21:38.957Z,3.85
2017-07-17T03:24:16.065Z,3.37
2017-07-17T03:26:45.798Z,3.95
2017-07-17T03:29:15.518Z,4.07
2017-07-17T03:31:45.266Z,3.87
2017-07-17T03:34:15.015Z,3.58
2017-07-17T03:36:44.773Z,3.75
2017-07-17T03:39:14.511Z,3.50
2017-07-17T03:41:44.233Z,3.55
2017-07-17T03:44:13.977Z,4.05
2017-07-17T03:46:43.714Z,3.92
2017-07-17T03:52:48.941Z,4.07
2017-07-17T03:55:18.713Z,3.50
2017-07-17T03:57:48.442Z,3.62
2017-07-17T04:00:18.203Z,3.50
2017-07-17T04:02:47.930Z,3.75
2017-07-17T04:05:17.696Z,4.43
2017-07-17T04:07:47.449Z,3.72
2017-07-17T04:10:17.205Z,3.80
2017-07-17T04:12:46.941Z,4.43
2017-07-17T04:15:16.725Z,3.95
2017-07-17T04:17:46.454Z,4.45
2017-07-17T04:20:16.210Z,4.07
2017-07-17T04:22:46.021Z,4.85
2017-07-17T04:25:15.804Z,3.87
2017-07-17T04:27:45.535Z,4.30
2017-07-17T04:30:15.302Z,4.05
2017-07-17T04:32:45.053Z,4.18
2017-07-17T04:35:14.801Z,4.40
2017-07-17T04:37:44.522Z,4.40
2017-07-17T04:40:14.312Z,3.70
2017-07-17T04:42:44.066Z,4.37
2017-07-17T04:45:13.830Z,4.57
2017-07-17T04:47:43.566Z,3.70
2017-07-17T04:50:13.379Z,4.78
2017-07-17T04:52:43.117Z,4.30
2017-07-17T04:55:12.881Z,4.25
2017-07-17T04:57:42.623Z,4.30
2017-07-17T05:00:12.400Z,4.28
2017-07-17T05:02:42.125Z,3.60
2017-07-17T05:05:11.889Z,3.78
2017-07-17T05:07:41.633Z,3.50
2017-07-17T05:10:11.423Z,4.30
2017-07-17T05:12:41.165Z,4.28
2017-07-17T05:15:10.955Z,4.07
2017-07-17T05:17:40.700Z,4.90
2017-07-17T05:20:10.455Z,3.75
2017-07-17T05:22:40.225Z,4.18
2017-07-17T05:25:09.992Z,4.00
2017-07-17T05:27:39.712Z,4.22
2017-07-17T05:30:09.487Z,4.00
2017-07-17T05:32:39.414Z,4.78
2017-07-17T05:35:09.027Z,4.70
2017-07-17T05:37:39.053Z,4.10
2017-07-17T05:40:08.639Z,4.50
2017-07-17T05:42:38.092Z,4.67
2017-07-17T05:45:07.867Z,5.00
2017-07-17T05:47:37.308Z,5.60
2017-07-17T05:50:06.815Z,5.80
2017-07-17T05:52:36.270Z,5.30
2017-07-17T05:55:06.023Z,5.40
2017-07-17T05:57:35.468Z,5.20
2017-07-17T06:00:04.618Z,5.70
2017-07-17T06:02:34.071Z,5.80
2017-07-17T06:05:03.292Z,5.40
2017-07-17T06:07:32.740Z,6.20
2017-07-17T06:10:02.314Z,7.00
2017-07-17T06:12:31.774Z,7.00
2017-07-17T06:15:01.240Z,8.67
2017-07-17T06:17:30.684Z,7.90
2017-07-17T06:20:00.129Z,6.10
2017-07-17T06:22:29.425Z,9.70
2017-07-17T06:24:58.878Z,7.50
2017-07-17T06:27:28.330Z,8.37
2017-07-17T06:29:57.782Z,7.10
2017-07-17T06:32:27.242Z,8.67
2017-07-17T06:34:56.791Z,10.30
2017-07-17T06:37:27.811Z,7.13
2017-07-17T06:39:57.278Z,9.73
2017-07-17T06:42:26.734Z,9.60
2017-07-17T06:44:56.215Z,7.53
2017-07-17T06:47:25.670Z,8.53
2017-07-17T06:49:55.193Z,8.43
2017-07-17T06:52:24.659Z,10.40
2017-07-17T06:54:54.122Z,9.30
2017-07-17T06:57:23.572Z,9.03
2017-07-17T06:59:53.025Z,10.60
2017-07-17T07:02:22.541Z,9.33
2017-07-17T07:04:52.008Z,9.60
2017-07-17T07:07:21.606Z,8.40
2017-07-17T07:09:51.050Z,9.30
2017-07-17T07:12:20.507Z,9.37
2017-07-17T07:14:49.957Z,8.60
2017-07-17T07:17:19.430Z,8.60
2017-07-17T07:19:48.871Z,9.13
2017-07-17T07:22:18.317Z,9.70
2017-07-17T07:24:47.791Z,8.63
2017-07-17T07:27:17.254Z,7.87
2017-07-17T07:29:46.710Z,8.00
2017-07-17T07:32:16.169Z,6.80
2017-07-17T07:34:45.620Z,7.00
2017-07-17T07:37:15.088Z,6.27
2017-07-17T07:39:44.535Z,5.80
2017-07-17T07:42:13.986Z,6.87
2017-07-17T07:44:43.489Z,7.73
2017-07-17T07:47:12.946Z,4.33
2017-07-17T07:49:42.428Z,4.50
2017-07-17T07:52:11.873Z,4.47
2017-07-17T07:54:41.344Z,4.00
2017-07-17T07:57:10.784Z,3.90
2017-07-17T07:59:41.149Z,3.23
2017-07-17T08:02:10.596Z,3.30
2017-07-17T08:04:40.047Z,2.77
2017-07-17T08:07:09.497Z,3.30
2017-07-17T08:09:38.969Z,3.00
2017-07-17T08:12:08.530Z,2.97
2017-07-17T08:14:37.958Z,3.50
2017-07-17T08:17:07.421Z,3.40
2017-07-17T08:19:36.873Z,3.40
2017-07-17T08:22:06.313Z,4.13
2017-07-17T08:24:35.778Z,3.70
2017-07-17T08:27:05.350Z,4.23
2017-07-17T08:29:34.790Z,3.70
2017-07-17T08:32:04.304Z,4.60
2017-07-17T08:34:33.737Z,3.27
2017-07-17T08:37:03.215Z,3.23
2017-07-17T08:39:32.677Z,3.90
2017-07-17T08:42:02.112Z,3.10
2017-07-17T08:44:31.576Z,2.77
2017-07-17T08:47:01.052Z,2.90
2017-07-17T08:49:30.523Z,2.50
2017-07-17T08:51:59.993Z,2.53
2017-07-17T08:54:29.456Z,3.17
2017-07-17T08:56:58.978Z,3.37
2017-07-17T08:59:28.445Z,2.90
2017-07-17T09:01:57.903Z,3.20
2017-07-17T09:04:27.355Z,3.57
2017-07-17T09:06:56.905Z,2.90
2017-07-17T09:09:26.351Z,2.33
2017-07-17T09:11:55.794Z,2.60
2017-07-17T09:14:25.247Z,2.53
2017-07-17T09:16:54.703Z,2.70
2017-07-17T09:19:24.173Z,3.70
2017-07-17T09:21:53.626Z,3.13
2017-07-17T09:24:23.332Z,3.03
2017-07-17T09:26:52.788Z,2.77
2017-07-17T09:29:22.237Z,2.87
2017-07-17T09:31:51.681Z,2.97
2017-07-17T09:34:21.147Z,2.80
2017-07-17T09:36:50.597Z,2.03
2017-07-17T09:39:20.033Z,2.07
2017-07-17T09:41:49.492Z,2.13
2017-07-17T09:44:18.969Z,2.20
2017-07-17T09:46:48.438Z,2.30
2017-07-17T09:49:17.880Z,2.13
2017-07-17T09:51:47.605Z,1.73
2017-07-17T09:54:17.078Z,1.50
2017-07-17T09:56:46.514Z,1.63
2017-07-17T09:59:15.961Z,1.70
2017-07-17T10:01:45.418Z,1.70
2017-07-17T10:04:14.870Z,1.60
2017-07-17T10:06:44.318Z,1.43
2017-07-17T10:09:13.778Z,1.80
2017-07-17T10:11:43.278Z,2.10
2017-07-17T10:14:12.738Z,2.00
2017-07-17T10:16:42.017Z,1.60
2017-07-17T10:19:11.507Z,2.00
2017-07-17T10:21:41.080Z,1.60
2017-07-17T10:24:10.525Z,1.50
2017-07-17T10:26:39.974Z,1.40
2017-07-17T10:29:09.428Z,1.70
2017-07-17T10:31:38.861Z,1.37
2017-07-17T10:34:08.313Z,1.53
2017-07-17T10:36:37.776Z,1.30
2017-07-17T10:39:07.216Z,1.50
2017-07-17T10:41:36.662Z,1.47
2017-07-17T10:44:06.137Z,1.50
2017-07-17T10:46:35.693Z,1.63
2017-07-17T10:49:05.153Z,1.70
2017-07-17T10:51:34.601Z,1.60
2017-07-17T10:54:04.084Z,1.73
2017-07-17T10:56:33.527Z,1.73
2017-07-17T10:59:02.986Z,1.80
2017-07-17T11:01:32.430Z,1.50
2017-07-17T11:04:01.894Z,1.73
2017-07-17T11:06:32.189Z,1.57
2017-07-17T11:09:01.637Z,1.60
2017-07-17T11:11:30.917Z,1.67
2017-07-17T11:14:00.395Z,1.63
2017-07-17T11:16:29.844Z,1.67
2017-07-17T11:18:59.367Z,1.67
2017-07-17T11:21:28.826Z,1.63
2017-07-17T11:23:58.335Z,1.67
2017-07-17T11:26:27.770Z,1.30
2017-07-17T11:28:57.245Z,1.60
2017-07-17T11:31:26.875Z,1.67
2017-07-17T11:33:56.306Z,1.60
2017-07-17T11:36:25.754Z,1.47
2017-07-17T11:38:55.223Z,1.80
2017-07-17T11:41:24.728Z,1.40
2017-07-17T11:43:54.421Z,1.93
2017-07-17T11:56:42.976Z,1.43
2017-07-17T11:59:12.423Z,1.63
2017-07-17T12:01:41.872Z,1.43
2017-07-17T12:04:11.311Z,1.53
2017-07-17T12:06:40.780Z,1.83
2017-07-17T12:09:10.217Z,1.40
2017-07-17T12:11:39.677Z,1.50
2017-07-17T12:14:09.167Z,1.53
2017-07-17T12:16:38.600Z,1.77
2017-07-17T12:19:08.139Z,1.60
2017-07-17T12:21:37.565Z,1.63
2017-07-17T12:24:07.006Z,1.40
2017-07-17T12:26:36.447Z,1.50
2017-07-17T12:29:05.877Z,1.70
2017-07-17T12:31:35.343Z,1.50
2017-07-17T12:34:04.789Z,1.70
2017-07-17T12:36:34.234Z,1.53
2017-07-17T12:39:03.236Z,1.50
2017-07-17T12:41:32.706Z,1.53
2017-07-17T12:44:02.140Z,1.60
2017-07-17T12:46:31.727Z,1.50
2017-07-17T12:49:01.442Z,1.40
2017-07-17T12:51:31.134Z,1.23
2017-07-17T12:54:00.592Z,1.37
2017-07-17T12:56:30.040Z,1.70
2017-07-17T12:58:59.494Z,1.40
2017-07-17T13:01:29.008Z,1.50
2017-07-17T13:03:58.448Z,1.40
2017-07-17T13:06:27.899Z,1.57
2017-07-17T13:08:57.324Z,1.53
2017-07-17T13:11:26.798Z,1.20
2017-07-17T13:13:56.243Z,1.23
2017-07-17T13:16:25.704Z,1.20
2017-07-17T13:18:55.135Z,1.10
2017-07-17T13:21:24.617Z,1.30
2017-07-17T13:23:54.066Z,1.00
2017-07-17T13:26:23.558Z,1.50
2017-07-17T13:28:53.007Z,1.03
2017-07-17T13:31:22.466Z,1.40
2017-07-17T13:33:51.913Z,1.20
2017-07-17T13:36:21.423Z,1.30
2017-07-17T13:38:50.876Z,1.20
2017-07-17T13:41:20.308Z,1.20
2017-07-17T13:43:49.776Z,1.00
2017-07-17T13:46:19.220Z,1.00
2017-07-17T13:48:48.664Z,1.17
2017-07-17T13:51:18.109Z,1.10
2017-07-17T13:53:47.549Z,0.90
2017-07-17T13:56:16.985Z,1.00
2017-07-17T13:58:46.445Z,1.20
2017-07-17T14:01:15.916Z,0.90
2017-07-17T14:03:45.418Z,0.83
2017-07-17T14:06:14.857Z,0.90
2017-07-17T14:08:44.292Z,1.20
2017-07-17T14:11:13.750Z,0.90
2017-07-17T14:13:43.201Z,1.03
2017-07-17T14:16:13.665Z,1.10
2017-07-17T14:18:43.095Z,1.00
2017-07-17T14:21:12.532Z,1.17
2017-07-17T14:23:41.975Z,1.07
2017-07-17T14:26:11.419Z,1.20
2017-07-17T14:28:40.890Z,1.23
2017-07-17T14:31:10.310Z,1.00
2017-07-17T14:33:39.790Z,1.13
2017-07-17T14:36:09.226Z,1.10
2017-07-17T14:38:38.681Z,1.30
2017-07-17T14:41:08.133Z,1.20
2017-07-17T14:43:38.270Z,1.20
2017-07-17T14:46:07.720Z,1.37
2017-07-17T14:48:37.855Z,1.33
2017-07-17T14:51:07.293Z,1.40
2017-07-17T14:53:36.731Z,1.60
2017-07-17T14:56:06.177Z,1.60
2017-07-17T14:58:35.616Z,1.20
2017-07-17T15:01:05.068Z,1.20
2017-07-17T15:03:34.516Z,1.30
2017-07-17T15:06:04.008Z,1.53
2017-07-17T15:08:33.449Z,2.00
2017-07-17T15:11:02.904Z,2.00
2017-07-17T15:13:32.375Z,1.67
2017-07-17T15:16:01.834Z,1.33
2017-07-17T15:18:31.957Z,1.67
2017-07-17T15:21:01.400Z,1.60
2017-07-17T15:23:30.852Z,1.57
2017-07-17T15:26:00.392Z,1.60
2017-07-17T15:28:29.838Z,1.63
2017-07-17T15:30:59.275Z,1.53
2017-07-17T15:33:29.426Z,1.50
2017-07-17T15:35:58.949Z,1.37
2017-07-17T15:38:28.454Z,1.73
2017-07-17T15:40:57.926Z,1.40
2017-07-17T15:43:27.717Z,1.50
2017-07-17T15:45:57.688Z,1.43
2017-07-17T15:48:27.840Z,1.27
2017-07-17T15:50:57.643Z,1.40
2017-07-17T15:53:29.563Z,1.60
2017-07-17T15:55:59.707Z,1.30
2017-07-17T15:58:29.525Z,1.20
2017-07-17T16:00:59.024Z,1.43
2017-07-17T16:03:28.487Z,1.23
2017-07-17T16:05:57.950Z,1.43
2017-07-17T16:08:28.316Z,1.37
2017-07-17T16:10:57.773Z,1.50
2017-07-17T16:13:27.232Z,1.60
2017-07-17T16:15:56.697Z,2.03
2017-07-17T16:18:27.660Z,1.40
2017-07-17T16:20:57.309Z,1.40
2017-07-17T16:23:27.887Z,1.40
2017-07-17T16:26:00.139Z,1.33
2017-07-17T16:28:32.841Z,1.67
2017-07-17T16:31:03.756Z,1.80
2017-07-17T16:33:34.915Z,1.53
2017-07-17T16:36:05.732Z,1.70
2017-07-17T16:38:36.840Z,1.53
2017-07-17T16:41:07.415Z,1.43
2017-07-17T16:43:37.838Z,1.40
2017-07-17T16:46:08.554Z,1.40
2017-07-17T16:48:40.304Z,1.97
2017-07-17T16:51:12.178Z,2.07
2017-07-17T16:53:43.512Z,2.00
2017-07-17T16:56:15.313Z,2.10
2017-07-17T16:58:45.149Z,2.20
2017-07-17T17:01:14.612Z,1.90
2017-07-17T17:03:44.101Z,2.00
2017-07-17T17:06:13.545Z,2.00
2017-07-17T17:08:43.089Z,2.13
2017-07-17T17:11:12.513Z,1.90
2017-07-17T17:13:41.974Z,1.73
2017-07-17T17:16:11.410Z,1.97
2017-07-17T17:18:40.857Z,1.80
2017-07-17T17:21:10.327Z,2.33
2017-07-17T17:23:39.784Z,2.20
2017-07-17T17:26:09.221Z,2.63
2017-07-17T17:28:38.691Z,2.10
2017-07-17T17:31:08.133Z,2.30
2017-07-17T17:33:37.581Z,1.80
2017-07-17T17:36:07.034Z,2.50
2017-07-17T17:38:36.475Z,2.83
2017-07-17T17:41:05.918Z,2.60
2017-07-17T17:43:35.369Z,1.97
2017-07-17T17:46:04.824Z,1.70
2017-07-17T17:48:34.954Z,1.87
2017-07-17T17:51:04.412Z,1.80
2017-07-17T17:53:33.861Z,2.00
2017-07-17T17:56:03.341Z,2.40
2017-07-17T17:58:32.818Z,1.90
2017-07-17T18:01:02.273Z,1.90
2017-07-17T18:03:31.790Z,1.90
2017-07-17T18:06:01.227Z,1.80
2017-07-17T18:08:30.667Z,1.70
2017-07-17T18:11:00.193Z,2.30
2017-07-17T18:13:29.869Z,1.87
2017-07-17T18:15:59.296Z,1.70
2017-07-17T18:18:28.783Z,1.50
2017-07-17T18:20:58.267Z,2.33
2017-07-17T18:23:27.720Z,2.03
2017-07-17T18:25:57.161Z,1.83
2017-07-17T18:28:26.636Z,2.03
2017-07-17T18:30:56.777Z,1.97
2017-07-17T18:33:26.227Z,1.80
2017-07-17T18:35:55.675Z,2.40
2017-07-17T18:38:25.114Z,1.87
2017-07-17T18:40:54.577Z,2.00
2017-07-17T18:43:24.044Z,2.33
2017-07-17T18:45:53.502Z,2.40
2017-07-17T18:48:22.956Z,2.20
2017-07-17T18:50:52.386Z,3.67
2017-07-17T18:53:21.853Z,2.20
2017-07-17T18:55:51.310Z,2.40
2017-07-17T18:58:20.754Z,2.77
2017-07-17T19:00:50.194Z,2.60
2017-07-17T19:03:19.633Z,3.27
2017-07-17T19:05:49.113Z,2.50
2017-07-17T19:08:18.548Z,3.33
2017-07-17T19:10:48.036Z,5.57
2017-07-17T19:13:17.502Z,4.20
2017-07-17T19:15:46.943Z,2.90
2017-07-17T19:18:16.401Z,7.00
2017-07-17T19:20:45.829Z,4.23
2017-07-17T19:23:15.286Z,3.00
2017-07-17T19:25:44.756Z,4.40
2017-07-17T19:28:14.193Z,3.90
2017-07-17T19:30:43.660Z,3.37
2017-07-17T19:33:13.097Z,3.20
2017-07-17T19:35:42.552Z,4.30
2017-07-17T19:38:12.009Z,20.30
2017-07-17T19:40:41.492Z,20.30
2017-07-17T19:43:10.958Z,22.63
2017-07-17T19:45:40.408Z,6.37
2017-07-17T19:48:09.895Z,13.10
2017-07-17T19:50:39.355Z,8.83
2017-07-17T19:53:08.794Z,3.70
2017-07-17T19:55:38.257Z,5.53
2017-07-17T19:58:07.711Z,3.40
2017-07-17T20:00:37.170Z,4.07
2017-07-17T20:03:06.431Z,2.90
2017-07-17T20:05:36.050Z,4.50
2017-07-17T20:08:05.527Z,3.63
2017-07-17T20:10:35.034Z,5.80
2017-07-17T20:13:04.460Z,3.67
2017-07-17T20:15:33.921Z,3.90
2017-07-17T20:18:03.401Z,3.27
2017-07-17T20:20:32.858Z,3.70
2017-07-17T20:23:02.359Z,3.80
2017-07-17T20:25:31.813Z,3.67
2017-07-17T20:28:01.252Z,4.43
2017-07-17T20:30:30.708Z,4.50
2017-07-17T20:33:00.146Z,3.70
2017-07-17T20:35:29.611Z,4.90
2017-07-17T20:37:59.097Z,4.80
2017-07-17T20:40:28.615Z,6.13
2017-07-17T20:42:58.738Z,5.23
2017-07-17T20:45:28.207Z,4.63
2017-07-17T20:47:57.645Z,4.07
2017-07-17T20:50:27.086Z,4.10
2017-07-17T20:52:56.519Z,4.80
2017-07-17T20:55:25.958Z,4.30
2017-07-17T20:57:55.431Z,4.40
2017-07-17T21:00:25.565Z,4.87
2017-07-17T21:02:55.031Z,4.00
2017-07-17T21:05:24.512Z,3.83
2017-07-17T21:07:53.973Z,3.93
2017-07-17T21:10:23.460Z,4.77
2017-07-17T21:12:52.715Z,4.43
2017-07-17T21:15:22.189Z,4.20
2017-07-17T21:17:51.672Z,5.50
2017-07-17T21:20:21.180Z,5.03
2017-07-17T21:22:50.647Z,4.77
2017-07-17T21:25:20.122Z,4.37
2017-07-17T21:27:49.564Z,4.60
2017-07-17T21:30:19.067Z,4.33
2017-07-17T21:32:48.501Z,4.10
2017-07-17T21:35:18.000Z,4.23
2017-07-17T21:37:47.431Z,4.47
2017-07-17T21:40:16.943Z,5.17
2017-07-17T21:42:46.360Z,6.13
2017-07-17T21:45:15.868Z,3.90
2017-07-17T21:47:45.298Z,4.07
2017-07-17T21:50:14.791Z,4.00
2017-07-17T21:52:44.229Z,3.87
2017-07-17T21:55:13.731Z,3.90
2017-07-17T21:57:43.170Z,4.50
2017-07-17T22:00:12.677Z,4.90
2017-07-17T22:02:41.980Z,5.43
2017-07-17T22:05:11.459Z,4.73
2017-07-17T22:07:40.889Z,4.90
2017-07-17T22:10:10.368Z,4.73
2017-07-17T22:12:39.797Z,4.93
2017-07-17T22:15:09.275Z,4.63
2017-07-17T22:17:38.846Z,5.13
2017-07-17T22:20:08.319Z,3.83
2017-07-17T22:22:37.762Z,4.37
2017-07-17T22:25:07.244Z,4.50
2017-07-17T22:27:36.696Z,4.00
2017-07-17T22:30:06.194Z,4.80
2017-07-17T22:32:35.645Z,4.60
2017-07-17T22:35:05.165Z,5.83
2017-07-17T22:37:34.598Z,5.40
2017-07-17T22:40:04.091Z,5.63
2017-07-17T22:42:33.535Z,5.30
2017-07-17T22:45:03.036Z,5.10
2017-07-17T22:47:32.463Z,5.43
2017-07-17T22:50:01.931Z,5.00
2017-07-17T22:52:31.385Z,4.93
2017-07-17T22:55:00.829Z,4.70
2017-07-17T22:57:30.272Z,5.10
2017-07-17T22:59:59.729Z,5.63
2017-07-17T23:02:29.189Z,5.17
2017-07-17T23:04:58.620Z,4.63
2017-07-17T23:07:28.161Z,4.90
2017-07-17T23:09:58.289Z,5.50
2017-07-17T23:12:27.734Z,11.50
2017-07-17T23:14:57.191Z,6.67
2017-07-17T23:17:26.632Z,6.40
2017-07-17T23:19:56.145Z,5.83
2017-07-17T23:22:25.578Z,8.50
2017-07-17T23:24:54.874Z,5.10
2017-07-17T23:27:24.336Z,5.77
2017-07-17T23:29:53.812Z,4.60
2017-07-17T23:32:23.265Z,4.97
2017-07-17T23:34:52.722Z,5.60
2017-07-17T23:37:22.178Z,4.87
2017-07-17T23:39:51.614Z,5.07
2017-07-17T23:42:21.082Z,4.83
2017-07-17T23:44:50.528Z,4.77
2017-07-17T23:47:19.817Z,4.40
2017-07-17T23:49:49.249Z,5.10
2017-07-17T23:52:18.726Z,4.73
2017-07-17T23:54:48.166Z,5.23
2017-07-17T23:57:17.593Z,5.83
2017-07-17T23:59:47.042Z,5.47
